Terminal Aerodrome Forecast
Issued by NWS Tulsa, OK

Home | Current Version | Previous Version | Text Only | Print | Product List | Glossary On
Versions: 1 2 3 4 5 6 7 8 9 10 11 12
000
FTUS44 KTSA 021735
TAFTUL
TAF
KTUL 021735Z 0218/0318 18005KT P6SM BKN050
     FM030600 07005KT P6SM OVC050 PROB30 0306/0310 -RA BKN040
     FM031000 07005KT 6SM -RA OVC050
      TEMPO 0314/0318 5SM -RA BKN025=

USA.gov is the U.S. government's official web portal to all federal, state and local government web resources and services.